sensor_id;sensor_type;location;lat;lon;timestamp;P1;durP1;ratioP1;P2;durP2;ratioP2
80247;SDS011;69560;52.206;21.018;2024-03-25T00:01:47;8.60;;;7.20;;
80247;SDS011;69560;52.206;21.018;2024-03-25T00:04:13;9.40;;;7.30;;
80247;SDS011;69560;52.206;21.018;2024-03-25T00:06:40;10.60;;;8.30;;
80247;SDS011;69560;52.206;21.018;2024-03-25T00:09:07;8.50;;;7.50;;
80247;SDS011;69560;52.206;21.018;2024-03-25T00:11:40;11.90;;;8.10;;
80247;SDS011;69560;52.206;21.018;2024-03-25T00:14:08;9.60;;;7.60;;
80247;SDS011;69560;52.206;21.018;2024-03-25T00:16:35;11.50;;;8.80;;
80247;SDS011;69560;52.206;21.018;2024-03-25T00:19:03;13.70;;;9.20;;
80247;SDS011;69560;52.206;21.018;2024-03-25T00:21:29;12.70;;;7.90;;
80247;SDS011;69560;52.206;21.018;2024-03-25T00:23:56;9.80;;;7.60;;
80247;SDS011;69560;52.206;21.018;2024-03-25T00:26:23;12.10;;;8.70;;
80247;SDS011;69560;52.206;21.018;2024-03-25T00:28:49;10.90;;;8.80;;
80247;SDS011;69560;52.206;21.018;2024-03-25T00:31:16;10.60;;;9.00;;
80247;SDS011;69560;52.206;21.018;2024-03-25T00:33:42;13.40;;;10.20;;
80247;SDS011;69560;52.206;21.018;2024-03-25T00:36:09;18.00;;;12.30;;
80247;SDS011;69560;52.206;21.018;2024-03-25T00:38:36;18.00;;;12.10;;
80247;SDS011;69560;52.206;21.018;2024-03-25T00:41:02;17.50;;;12.90;;
80247;SDS011;69560;52.206;21.018;2024-03-25T00:43:29;20.10;;;12.80;;
80247;SDS011;69560;52.206;21.018;2024-03-25T00:45:55;18.40;;;13.50;;
80247;SDS011;69560;52.206;21.018;2024-03-25T00:48:23;19.20;;;12.80;;
80247;SDS011;69560;52.206;21.018;2024-03-25T00:50:49;17.80;;;12.90;;
80247;SDS011;69560;52.206;21.018;2024-03-25T00:53:16;22.20;;;13.90;;
80247;SDS011;69560;52.206;21.018;2024-03-25T00:55:42;23.70;;;15.00;;
80247;SDS011;69560;52.206;21.018;2024-03-25T00:58:09;22.60;;;15.60;;
80247;SDS011;69560;52.206;21.018;2024-03-25T01:00:36;25.00;;;15.90;;
80247;SDS011;69560;52.206;21.018;2024-03-25T01:03:02;22.10;;;15.00;;
80247;SDS011;69560;52.206;21.018;2024-03-25T01:05:29;28.20;;;16.50;;
80247;SDS011;69560;52.206;21.018;2024-03-25T01:07:56;19.70;;;15.30;;
80247;SDS011;69560;52.206;21.018;2024-03-25T01:10:22;25.20;;;16.90;;
80247;SDS011;69560;52.206;21.018;2024-03-25T01:12:49;25.00;;;15.90;;
80247;SDS011;69560;52.206;21.018;2024-03-25T01:15:15;25.00;;;17.10;;
80247;SDS011;69560;52.206;21.018;2024-03-25T01:17:41;36.40;;;25.50;;
80247;SDS011;69560;52.206;21.018;2024-03-25T01:20:08;38.30;;;28.50;;
80247;SDS011;69560;52.206;21.018;2024-03-25T01:22:35;26.70;;;17.20;;
80247;SDS011;69560;52.206;21.018;2024-03-25T01:25:02;27.80;;;18.40;;
80247;SDS011;69560;52.206;21.018;2024-03-25T01:27:28;26.60;;;17.10;;
80247;SDS011;69560;52.206;21.018;2024-03-25T01:29:55;25.10;;;17.10;;
80247;SDS011;69560;52.206;21.018;2024-03-25T01:32:21;27.80;;;18.00;;
80247;SDS011;69560;52.206;21.018;2024-03-25T01:34:48;25.20;;;16.90;;
80247;SDS011;69560;52.206;21.018;2024-03-25T01:37:14;26.30;;;18.10;;
80247;SDS011;69560;52.206;21.018;2024-03-25T01:39:41;24.50;;;15.60;;
80247;SDS011;69560;52.206;21.018;2024-03-25T01:42:07;24.50;;;17.50;;
80247;SDS011;69560;52.206;21.018;2024-03-25T01:44:33;25.60;;;17.30;;
80247;SDS011;69560;52.206;21.018;2024-03-25T01:47:00;26.00;;;17.40;;
80247;SDS011;69560;52.206;21.018;2024-03-25T01:49:27;25.70;;;18.60;;
80247;SDS011;69560;52.206;21.018;2024-03-25T01:51:54;28.30;;;18.80;;
80247;SDS011;69560;52.206;21.018;2024-03-25T01:54:20;25.60;;;17.50;;
80247;SDS011;69560;52.206;21.018;2024-03-25T01:56:47;24.90;;;18.20;;
80247;SDS011;69560;52.206;21.018;2024-03-25T01:59:15;26.60;;;17.90;;
80247;SDS011;69560;52.206;21.018;2024-03-25T02:01:45;25.70;;;17.00;;
80247;SDS011;69560;52.206;21.018;2024-03-25T02:04:12;26.40;;;17.60;;
80247;SDS011;69560;52.206;21.018;2024-03-25T02:06:40;24.40;;;16.70;;
80247;SDS011;69560;52.206;21.018;2024-03-25T02:09:07;25.90;;;18.20;;
80247;SDS011;69560;52.206;21.018;2024-03-25T02:11:36;29.50;;;18.80;;
80247;SDS011;69560;52.206;21.018;2024-03-25T02:14:03;26.10;;;17.80;;
80247;SDS011;69560;52.206;21.018;2024-03-25T02:16:29;24.20;;;17.90;;
80247;SDS011;69560;52.206;21.018;2024-03-25T02:18:56;27.20;;;18.70;;
80247;SDS011;69560;52.206;21.018;2024-03-25T02:21:22;25.80;;;18.30;;
80247;SDS011;69560;52.206;21.018;2024-03-25T02:23:49;27.70;;;18.30;;
80247;SDS011;69560;52.206;21.018;2024-03-25T02:26:19;24.60;;;17.90;;
80247;SDS011;69560;52.206;21.018;2024-03-25T02:28:45;30.70;;;19.70;;
80247;SDS011;69560;52.206;21.018;2024-03-25T02:31:12;26.60;;;18.60;;
80247;SDS011;69560;52.206;21.018;2024-03-25T02:33:38;29.00;;;18.30;;
80247;SDS011;69560;52.206;21.018;2024-03-25T02:36:05;28.10;;;19.00;;
80247;SDS011;69560;52.206;21.018;2024-03-25T02:38:32;29.20;;;19.20;;
80247;SDS011;69560;52.206;21.018;2024-03-25T02:40:59;26.80;;;18.60;;
80247;SDS011;69560;52.206;21.018;2024-03-25T02:43:26;29.10;;;19.00;;
80247;SDS011;69560;52.206;21.018;2024-03-25T02:45:53;26.70;;;19.00;;
80247;SDS011;69560;52.206;21.018;2024-03-25T02:48:20;31.00;;;20.20;;
80247;SDS011;69560;52.206;21.018;2024-03-25T02:50:47;31.60;;;19.80;;
80247;SDS011;69560;52.206;21.018;2024-03-25T02:53:13;26.40;;;16.90;;
80247;SDS011;69560;52.206;21.018;2024-03-25T02:55:40;27.80;;;18.50;;
80247;SDS011;69560;52.206;21.018;2024-03-25T02:58:07;32.10;;;19.20;;
80247;SDS011;69560;52.206;21.018;2024-03-25T03:00:33;30.40;;;19.30;;
80247;SDS011;69560;52.206;21.018;2024-03-25T03:03:00;29.70;;;19.90;;
80247;SDS011;69560;52.206;21.018;2024-03-25T03:05:26;28.20;;;19.20;;
80247;SDS011;69560;52.206;21.018;2024-03-25T03:07:53;29.30;;;19.70;;
80247;SDS011;69560;52.206;21.018;2024-03-25T03:10:19;28.50;;;19.30;;
80247;SDS011;69560;52.206;21.018;2024-03-25T03:12:46;31.20;;;20.70;;
80247;SDS011;69560;52.206;21.018;2024-03-25T03:15:12;29.10;;;20.00;;
80247;SDS011;69560;52.206;21.018;2024-03-25T03:17:41;28.90;;;19.00;;
80247;SDS011;69560;52.206;21.018;2024-03-25T03:20:08;27.10;;;18.80;;
80247;SDS011;69560;52.206;21.018;2024-03-25T03:22:35;25.50;;;18.00;;
80247;SDS011;69560;52.206;21.018;2024-03-25T03:25:02;26.20;;;18.20;;
80247;SDS011;69560;52.206;21.018;2024-03-25T03:27:29;29.50;;;19.70;;
80247;SDS011;69560;52.206;21.018;2024-03-25T03:29:56;32.60;;;19.90;;
80247;SDS011;69560;52.206;21.018;2024-03-25T03:32:23;28.10;;;19.00;;
80247;SDS011;69560;52.206;21.018;2024-03-25T03:34:49;27.20;;;19.30;;
80247;SDS011;69560;52.206;21.018;2024-03-25T03:37:16;28.20;;;20.30;;
80247;SDS011;69560;52.206;21.018;2024-03-25T03:39:42;30.90;;;19.70;;
80247;SDS011;69560;52.206;21.018;2024-03-25T03:42:09;34.30;;;20.10;;
80247;SDS011;69560;52.206;21.018;2024-03-25T03:44:35;28.60;;;19.60;;
80247;SDS011;69560;52.206;21.018;2024-03-25T03:47:01;28.10;;;20.40;;
80247;SDS011;69560;52.206;21.018;2024-03-25T03:49:28;27.10;;;19.30;;
80247;SDS011;69560;52.206;21.018;2024-03-25T03:51:54;28.10;;;20.20;;
80247;SDS011;69560;52.206;21.018;2024-03-25T03:54:21;28.50;;;19.40;;
80247;SDS011;69560;52.206;21.018;2024-03-25T03:56:48;25.90;;;18.40;;
80247;SDS011;69560;52.206;21.018;2024-03-25T03:59:14;29.70;;;18.90;;
80247;SDS011;69560;52.206;21.018;2024-03-25T04:01:40;27.20;;;18.50;;
80247;SDS011;69560;52.206;21.018;2024-03-25T04:04:07;26.00;;;19.60;;
80247;SDS011;69560;52.206;21.018;2024-03-25T04:06:33;28.00;;;19.10;;
80247;SDS011;69560;52.206;21.018;2024-03-25T04:09:00;28.80;;;19.20;;
80247;SDS011;69560;52.206;21.018;2024-03-25T04:11:26;30.00;;;19.80;;
80247;SDS011;69560;52.206;21.018;2024-03-25T04:13:53;29.70;;;19.10;;
80247;SDS011;69560;52.206;21.018;2024-03-25T04:16:19;26.10;;;19.00;;
80247;SDS011;69560;52.206;21.018;2024-03-25T04:18:47;29.50;;;20.10;;
80247;SDS011;69560;52.206;21.018;2024-03-25T04:21:13;30.30;;;19.50;;
80247;SDS011;69560;52.206;21.018;2024-03-25T04:23:40;29.30;;;19.30;;
80247;SDS011;69560;52.206;21.018;2024-03-25T04:26:07;33.30;;;21.30;;
80247;SDS011;69560;52.206;21.018;2024-03-25T04:28:34;28.40;;;19.30;;
80247;SDS011;69560;52.206;21.018;2024-03-25T04:31:01;25.70;;;18.40;;
80247;SDS011;69560;52.206;21.018;2024-03-25T04:33:28;27.20;;;17.40;;
80247;SDS011;69560;52.206;21.018;2024-03-25T04:35:55;27.90;;;18.10;;
80247;SDS011;69560;52.206;21.018;2024-03-25T04:38:21;29.20;;;18.60;;
80247;SDS011;69560;52.206;21.018;2024-03-25T04:40:48;31.30;;;19.30;;
80247;SDS011;69560;52.206;21.018;2024-03-25T04:43:14;28.00;;;19.00;;
80247;SDS011;69560;52.206;21.018;2024-03-25T04:45:40;35.30;;;19.90;;
80247;SDS011;69560;52.206;21.018;2024-03-25T04:48:07;28.30;;;18.70;;
80247;SDS011;69560;52.206;21.018;2024-03-25T04:50:34;28.30;;;18.70;;
80247;SDS011;69560;52.206;21.018;2024-03-25T04:53:00;26.20;;;17.80;;
80247;SDS011;69560;52.206;21.018;2024-03-25T04:55:27;28.90;;;18.80;;
80247;SDS011;69560;52.206;21.018;2024-03-25T04:57:53;28.40;;;16.30;;
80247;SDS011;69560;52.206;21.018;2024-03-25T05:00:20;27.30;;;17.30;;
80247;SDS011;69560;52.206;21.018;2024-03-25T05:02:46;26.80;;;17.70;;
80247;SDS011;69560;52.206;21.018;2024-03-25T05:05:13;26.80;;;18.20;;
80247;SDS011;69560;52.206;21.018;2024-03-25T05:07:39;27.30;;;18.20;;
80247;SDS011;69560;52.206;21.018;2024-03-25T05:10:06;28.20;;;18.70;;
80247;SDS011;69560;52.206;21.018;2024-03-25T05:12:33;27.30;;;16.90;;
80247;SDS011;69560;52.206;21.018;2024-03-25T05:14:59;23.80;;;17.20;;
80247;SDS011;69560;52.206;21.018;2024-03-25T05:17:26;26.80;;;17.70;;
80247;SDS011;69560;52.206;21.018;2024-03-25T05:19:52;28.20;;;17.80;;
80247;SDS011;69560;52.206;21.018;2024-03-25T05:22:19;25.00;;;17.70;;
80247;SDS011;69560;52.206;21.018;2024-03-25T05:24:45;23.20;;;16.50;;
80247;SDS011;69560;52.206;21.018;2024-03-25T05:27:12;28.00;;;17.90;;
80247;SDS011;69560;52.206;21.018;2024-03-25T05:29:38;28.20;;;18.70;;
80247;SDS011;69560;52.206;21.018;2024-03-25T05:32:05;24.10;;;16.20;;
80247;SDS011;69560;52.206;21.018;2024-03-25T05:34:32;26.70;;;17.90;;
80247;SDS011;69560;52.206;21.018;2024-03-25T05:36:58;25.20;;;16.50;;
80247;SDS011;69560;52.206;21.018;2024-03-25T05:39:25;26.50;;;17.50;;
80247;SDS011;69560;52.206;21.018;2024-03-25T05:41:51;24.20;;;16.70;;
80247;SDS011;69560;52.206;21.018;2024-03-25T05:44:17;28.30;;;18.00;;
80247;SDS011;69560;52.206;21.018;2024-03-25T05:46:44;26.10;;;16.60;;
80247;SDS011;69560;52.206;21.018;2024-03-25T05:49:10;26.70;;;16.90;;
80247;SDS011;69560;52.206;21.018;2024-03-25T05:51:37;25.30;;;16.30;;
80247;SDS011;69560;52.206;21.018;2024-03-25T05:54:03;26.80;;;16.70;;
80247;SDS011;69560;52.206;21.018;2024-03-25T05:56:31;26.40;;;17.40;;
80247;SDS011;69560;52.206;21.018;2024-03-25T05:58:57;23.20;;;15.50;;
80247;SDS011;69560;52.206;21.018;2024-03-25T06:01:24;21.90;;;15.60;;
80247;SDS011;69560;52.206;21.018;2024-03-25T06:03:51;24.70;;;17.10;;
80247;SDS011;69560;52.206;21.018;2024-03-25T06:06:18;24.10;;;16.50;;
80247;SDS011;69560;52.206;21.018;2024-03-25T06:08:45;25.00;;;16.60;;
80247;SDS011;69560;52.206;21.018;2024-03-25T06:11:11;21.20;;;15.50;;
80247;SDS011;69560;52.206;21.018;2024-03-25T06:13:38;22.40;;;15.40;;
80247;SDS011;69560;52.206;21.018;2024-03-25T06:16:04;23.50;;;16.10;;
80247;SDS011;69560;52.206;21.018;2024-03-25T06:18:31;22.50;;;15.30;;
80247;SDS011;69560;52.206;21.018;2024-03-25T06:20:58;21.30;;;15.40;;
80247;SDS011;69560;52.206;21.018;2024-03-25T06:23:24;22.90;;;15.20;;
80247;SDS011;69560;52.206;21.018;2024-03-25T06:25:55;23.60;;;15.20;;
80247;SDS011;69560;52.206;21.018;2024-03-25T06:28:22;24.90;;;15.60;;
80247;SDS011;69560;52.206;21.018;2024-03-25T06:30:50;23.40;;;14.30;;
80247;SDS011;69560;52.206;21.018;2024-03-25T06:33:36;20.30;;;14.60;;
80247;SDS011;69560;52.206;21.018;2024-03-25T06:36:21;23.10;;;15.70;;
80247;SDS011;69560;52.206;21.018;2024-03-25T06:38:48;19.80;;;14.30;;
80247;SDS011;69560;52.206;21.018;2024-03-25T06:41:15;20.90;;;14.50;;
80247;SDS011;69560;52.206;21.018;2024-03-25T06:43:41;23.90;;;14.40;;
80247;SDS011;69560;52.206;21.018;2024-03-25T06:46:08;26.10;;;15.90;;
80247;SDS011;69560;52.206;21.018;2024-03-25T06:48:35;18.90;;;13.10;;
80247;SDS011;69560;52.206;21.018;2024-03-25T06:51:02;19.50;;;13.40;;
80247;SDS011;69560;52.206;21.018;2024-03-25T06:53:29;22.60;;;14.90;;
80247;SDS011;69560;52.206;21.018;2024-03-25T06:55:57;20.90;;;14.60;;
80247;SDS011;69560;52.206;21.018;2024-03-25T06:58:25;22.60;;;15.60;;
80247;SDS011;69560;52.206;21.018;2024-03-25T07:00:54;22.60;;;16.50;;
80247;SDS011;69560;52.206;21.018;2024-03-25T07:03:22;21.30;;;14.90;;
80247;SDS011;69560;52.206;21.018;2024-03-25T07:05:50;21.80;;;14.60;;
80247;SDS011;69560;52.206;21.018;2024-03-25T07:08:21;22.20;;;15.00;;
80247;SDS011;69560;52.206;21.018;2024-03-25T07:10:48;22.30;;;14.90;;
80247;SDS011;69560;52.206;21.018;2024-03-25T07:13:14;21.70;;;14.60;;
80247;SDS011;69560;52.206;21.018;2024-03-25T07:15:42;21.90;;;15.20;;
80247;SDS011;69560;52.206;21.018;2024-03-25T07:18:09;22.80;;;14.50;;
80247;SDS011;69560;52.206;21.018;2024-03-25T07:20:39;20.70;;;13.60;;
80247;SDS011;69560;52.206;21.018;2024-03-25T07:23:06;22.70;;;14.20;;
80247;SDS011;69560;52.206;21.018;2024-03-25T07:25:33;19.70;;;13.50;;
80247;SDS011;69560;52.206;21.018;2024-03-25T07:27:59;19.80;;;13.70;;
80247;SDS011;69560;52.206;21.018;2024-03-25T07:30:26;18.90;;;14.00;;
80247;SDS011;69560;52.206;21.018;2024-03-25T07:32:57;20.70;;;12.90;;
80247;SDS011;69560;52.206;21.018;2024-03-25T07:35:24;19.40;;;14.00;;
80247;SDS011;69560;52.206;21.018;2024-03-25T07:37:51;19.90;;;13.10;;
80247;SDS011;69560;52.206;21.018;2024-03-25T07:40:18;17.30;;;12.80;;
80247;SDS011;69560;52.206;21.018;2024-03-25T07:42:45;18.30;;;12.50;;
80247;SDS011;69560;52.206;21.018;2024-03-25T07:45:11;16.20;;;12.00;;
80247;SDS011;69560;52.206;21.018;2024-03-25T07:47:38;15.90;;;11.30;;
80247;SDS011;69560;52.206;21.018;2024-03-25T07:50:05;16.70;;;12.10;;
80247;SDS011;69560;52.206;21.018;2024-03-25T07:52:32;15.40;;;11.80;;
80247;SDS011;69560;52.206;21.018;2024-03-25T07:54:58;17.40;;;11.50;;
80247;SDS011;69560;52.206;21.018;2024-03-25T07:57:25;20.30;;;12.40;;
80247;SDS011;69560;52.206;21.018;2024-03-25T07:59:51;15.20;;;11.40;;
80247;SDS011;69560;52.206;21.018;2024-03-25T08:02:18;16.40;;;12.20;;
80247;SDS011;69560;52.206;21.018;2024-03-25T08:04:44;13.50;;;11.00;;
80247;SDS011;69560;52.206;21.018;2024-03-25T08:07:11;15.80;;;11.50;;
80247;SDS011;69560;52.206;21.018;2024-03-25T08:09:37;16.00;;;11.30;;
80247;SDS011;69560;52.206;21.018;2024-03-25T08:12:04;13.10;;;10.20;;
80247;SDS011;69560;52.206;21.018;2024-03-25T08:14:31;13.20;;;9.40;;
80247;SDS011;69560;52.206;21.018;2024-03-25T08:16:57;12.00;;;9.20;;
80247;SDS011;69560;52.206;21.018;2024-03-25T08:19:24;12.10;;;8.90;;
80247;SDS011;69560;52.206;21.018;2024-03-25T08:21:51;13.30;;;8.90;;
80247;SDS011;69560;52.206;21.018;2024-03-25T08:24:17;11.90;;;8.80;;
80247;SDS011;69560;52.206;21.018;2024-03-25T08:26:44;11.50;;;9.00;;
80247;SDS011;69560;52.206;21.018;2024-03-25T08:29:10;14.20;;;9.50;;
80247;SDS011;69560;52.206;21.018;2024-03-25T08:31:37;11.20;;;8.40;;
80247;SDS011;69560;52.206;21.018;2024-03-25T08:34:03;12.00;;;8.60;;
80247;SDS011;69560;52.206;21.018;2024-03-25T08:36:30;9.90;;;7.60;;
80247;SDS011;69560;52.206;21.018;2024-03-25T08:38:56;10.00;;;7.80;;
80247;SDS011;69560;52.206;21.018;2024-03-25T08:41:22;9.40;;;7.90;;
80247;SDS011;69560;52.206;21.018;2024-03-25T08:43:49;10.10;;;7.60;;
80247;SDS011;69560;52.206;21.018;2024-03-25T08:46:15;8.00;;;6.80;;
80247;SDS011;69560;52.206;21.018;2024-03-25T08:48:42;10.10;;;8.00;;
80247;SDS011;69560;52.206;21.018;2024-03-25T08:51:08;10.50;;;7.50;;
80247;SDS011;69560;52.206;21.018;2024-03-25T08:53:35;12.70;;;8.60;;
80247;SDS011;69560;52.206;21.018;2024-03-25T08:56:01;10.40;;;8.20;;
80247;SDS011;69560;52.206;21.018;2024-03-25T08:58:28;11.00;;;8.80;;
80247;SDS011;69560;52.206;21.018;2024-03-25T09:00:54;10.90;;;8.40;;
80247;SDS011;69560;52.206;21.018;2024-03-25T09:03:21;11.70;;;8.40;;
80247;SDS011;69560;52.206;21.018;2024-03-25T09:05:47;9.30;;;7.10;;
80247;SDS011;69560;52.206;21.018;2024-03-25T09:08:14;12.70;;;6.90;;
80247;SDS011;69560;52.206;21.018;2024-03-25T09:10:42;8.50;;;6.40;;
80247;SDS011;69560;52.206;21.018;2024-03-25T09:13:29;8.40;;;6.00;;
80247;SDS011;69560;52.206;21.018;2024-03-25T09:15:56;10.00;;;6.00;;
80247;SDS011;69560;52.206;21.018;2024-03-25T09:18:23;9.20;;;5.80;;
80247;SDS011;69560;52.206;21.018;2024-03-25T09:20:49;7.90;;;5.70;;
80247;SDS011;69560;52.206;21.018;2024-03-25T09:23:16;6.10;;;4.90;;
80247;SDS011;69560;52.206;21.018;2024-03-25T09:25:52;7.50;;;4.40;;
80247;SDS011;69560;52.206;21.018;2024-03-25T09:28:19;6.10;;;4.60;;
80247;SDS011;69560;52.206;21.018;2024-03-25T09:30:47;5.50;;;3.80;;
80247;SDS011;69560;52.206;21.018;2024-03-25T09:33:15;4.90;;;3.80;;
80247;SDS011;69560;52.206;21.018;2024-03-25T09:35:41;7.70;;;3.80;;
80247;SDS011;69560;52.206;21.018;2024-03-25T09:38:08;6.60;;;4.30;;
80247;SDS011;69560;52.206;21.018;2024-03-25T09:40:39;6.30;;;4.80;;
80247;SDS011;69560;52.206;21.018;2024-03-25T09:43:07;4.40;;;4.00;;
80247;SDS011;69560;52.206;21.018;2024-03-25T09:45:43;6.30;;;4.50;;
80247;SDS011;69560;52.206;21.018;2024-03-25T09:48:15;7.50;;;4.50;;
80247;SDS011;69560;52.206;21.018;2024-03-25T09:50:43;4.40;;;4.00;;
80247;SDS011;69560;52.206;21.018;2024-03-25T09:53:11;5.70;;;4.70;;
80247;SDS011;69560;52.206;21.018;2024-03-25T09:55:37;4.60;;;3.90;;
80247;SDS011;69560;52.206;21.018;2024-03-25T09:58:04;5.10;;;4.30;;
80247;SDS011;69560;52.206;21.018;2024-03-25T10:00:31;6.50;;;4.50;;
80247;SDS011;69560;52.206;21.018;2024-03-25T10:02:58;5.20;;;4.30;;
80247;SDS011;69560;52.206;21.018;2024-03-25T10:05:24;5.70;;;4.50;;
80247;SDS011;69560;52.206;21.018;2024-03-25T10:07:51;5.10;;;4.40;;
80247;SDS011;69560;52.206;21.018;2024-03-25T10:10:20;7.00;;;4.60;;
80247;SDS011;69560;52.206;21.018;2024-03-25T10:12:47;8.10;;;4.60;;
80247;SDS011;69560;52.206;21.018;2024-03-25T10:15:16;5.50;;;4.90;;
80247;SDS011;69560;52.206;21.018;2024-03-25T10:17:43;6.50;;;5.30;;
80247;SDS011;69560;52.206;21.018;2024-03-25T10:20:13;5.40;;;4.90;;
80247;SDS011;69560;52.206;21.018;2024-03-25T10:22:43;6.20;;;5.20;;
80247;SDS011;69560;52.206;21.018;2024-03-25T10:30:27;4.00;;;3.70;;
80247;SDS011;69560;52.206;21.018;2024-03-25T10:33:00;5.70;;;4.10;;
80247;SDS011;69560;52.206;21.018;2024-03-25T10:35:29;5.10;;;4.20;;
80247;SDS011;69560;52.206;21.018;2024-03-25T10:38:00;5.50;;;4.10;;
80247;SDS011;69560;52.206;21.018;2024-03-25T10:40:35;4.90;;;4.40;;
80247;SDS011;69560;52.206;21.018;2024-03-25T10:43:06;3.50;;;3.10;;
80247;SDS011;69560;52.206;21.018;2024-03-25T10:45:49;4.50;;;3.80;;
80247;SDS011;69560;52.206;21.018;2024-03-25T10:48:20;5.40;;;3.90;;
80247;SDS011;69560;52.206;21.018;2024-03-25T10:50:53;6.40;;;4.10;;
80247;SDS011;69560;52.206;21.018;2024-03-25T10:53:22;4.80;;;4.00;;
80247;SDS011;69560;52.206;21.018;2024-03-25T10:55:53;4.40;;;3.90;;
80247;SDS011;69560;52.206;21.018;2024-03-25T10:58:23;4.40;;;3.70;;
80247;SDS011;69560;52.206;21.018;2024-03-25T11:00:53;4.60;;;4.00;;
80247;SDS011;69560;52.206;21.018;2024-03-25T11:03:24;4.80;;;4.30;;
80247;SDS011;69560;52.206;21.018;2024-03-25T11:05:51;4.80;;;4.20;;
80247;SDS011;69560;52.206;21.018;2024-03-25T11:08:18;6.50;;;4.70;;
80247;SDS011;69560;52.206;21.018;2024-03-25T11:10:47;4.80;;;4.10;;
80247;SDS011;69560;52.206;21.018;2024-03-25T11:13:14;5.80;;;4.80;;
80247;SDS011;69560;52.206;21.018;2024-03-25T11:15:44;4.70;;;4.10;;
80247;SDS011;69560;52.206;21.018;2024-03-25T11:18:13;4.80;;;3.90;;
80247;SDS011;69560;52.206;21.018;2024-03-25T11:20:40;3.90;;;3.30;;
80247;SDS011;69560;52.206;21.018;2024-03-25T11:23:11;5.10;;;3.80;;
80247;SDS011;69560;52.206;21.018;2024-03-25T11:25:40;4.30;;;3.90;;
80247;SDS011;69560;52.206;21.018;2024-03-25T11:28:10;6.70;;;4.10;;
80247;SDS011;69560;52.206;21.018;2024-03-25T11:30:37;5.30;;;4.70;;
80247;SDS011;69560;52.206;21.018;2024-03-25T11:33:07;6.00;;;4.90;;
80247;SDS011;69560;52.206;21.018;2024-03-25T11:35:37;7.00;;;4.80;;
80247;SDS011;69560;52.206;21.018;2024-03-25T11:38:04;6.80;;;4.60;;
80247;SDS011;69560;52.206;21.018;2024-03-25T11:40:30;6.00;;;5.40;;
80247;SDS011;69560;52.206;21.018;2024-03-25T11:42:58;6.10;;;5.20;;
80247;SDS011;69560;52.206;21.018;2024-03-25T11:45:25;6.80;;;5.30;;
80247;SDS011;69560;52.206;21.018;2024-03-25T11:47:51;5.70;;;4.40;;
80247;SDS011;69560;52.206;21.018;2024-03-25T11:50:18;5.80;;;4.90;;
80247;SDS011;69560;52.206;21.018;2024-03-25T11:52:46;5.60;;;4.00;;
80247;SDS011;69560;52.206;21.018;2024-03-25T11:55:16;4.70;;;4.10;;
80247;SDS011;69560;52.206;21.018;2024-03-25T11:57:43;4.60;;;4.00;;
80247;SDS011;69560;52.206;21.018;2024-03-25T12:00:10;5.30;;;3.60;;
80247;SDS011;69560;52.206;21.018;2024-03-25T12:02:43;4.40;;;4.00;;
80247;SDS011;69560;52.206;21.018;2024-03-25T12:05:12;3.80;;;3.20;;
80247;SDS011;69560;52.206;21.018;2024-03-25T12:07:39;4.00;;;3.50;;
80247;SDS011;69560;52.206;21.018;2024-03-25T12:10:05;4.10;;;3.30;;
80247;SDS011;69560;52.206;21.018;2024-03-25T12:12:51;3.50;;;3.00;;
80247;SDS011;69560;52.206;21.018;2024-03-25T12:15:17;6.60;;;3.50;;
80247;SDS011;69560;52.206;21.018;2024-03-25T12:17:50;4.20;;;3.30;;
80247;SDS011;69560;52.206;21.018;2024-03-25T12:20:34;4.80;;;3.70;;
80247;SDS011;69560;52.206;21.018;2024-03-25T12:23:01;5.90;;;4.20;;
80247;SDS011;69560;52.206;21.018;2024-03-25T12:25:28;4.50;;;3.50;;
80247;SDS011;69560;52.206;21.018;2024-03-25T12:27:55;4.10;;;3.70;;
80247;SDS011;69560;52.206;21.018;2024-03-25T12:30:21;5.40;;;3.60;;
80247;SDS011;69560;52.206;21.018;2024-03-25T12:32:48;6.30;;;4.30;;
80247;SDS011;69560;52.206;21.018;2024-03-25T12:35:15;5.20;;;4.30;;
80247;SDS011;69560;52.206;21.018;2024-03-25T12:37:43;5.90;;;4.70;;
80247;SDS011;69560;52.206;21.018;2024-03-25T12:40:25;7.20;;;4.00;;
80247;SDS011;69560;52.206;21.018;2024-03-25T12:42:53;7.30;;;4.10;;
80247;SDS011;69560;52.206;21.018;2024-03-25T12:45:20;5.10;;;3.60;;
80247;SDS011;69560;52.206;21.018;2024-03-25T12:47:48;6.40;;;3.30;;
80247;SDS011;69560;52.206;21.018;2024-03-25T12:50:15;3.80;;;3.10;;
80247;SDS011;69560;52.206;21.018;2024-03-25T12:52:41;3.40;;;3.00;;
80247;SDS011;69560;52.206;21.018;2024-03-25T12:55:08;3.00;;;2.70;;
80247;SDS011;69560;52.206;21.018;2024-03-25T12:57:35;5.10;;;2.40;;
80247;SDS011;69560;52.206;21.018;2024-03-25T13:00:02;3.00;;;2.70;;
80247;SDS011;69560;52.206;21.018;2024-03-25T13:02:30;3.70;;;2.50;;
80247;SDS011;69560;52.206;21.018;2024-03-25T13:04:57;4.10;;;3.20;;
80247;SDS011;69560;52.206;21.018;2024-03-25T13:07:23;7.10;;;4.40;;
80247;SDS011;69560;52.206;21.018;2024-03-25T13:09:50;5.30;;;4.20;;
80247;SDS011;69560;52.206;21.018;2024-03-25T13:12:16;5.10;;;4.50;;
80247;SDS011;69560;52.206;21.018;2024-03-25T13:14:43;10.00;;;5.30;;
80247;SDS011;69560;52.206;21.018;2024-03-25T13:17:09;6.60;;;5.30;;
80247;SDS011;69560;52.206;21.018;2024-03-25T13:19:36;6.30;;;5.50;;
80247;SDS011;69560;52.206;21.018;2024-03-25T13:22:02;6.30;;;5.50;;
80247;SDS011;69560;52.206;21.018;2024-03-25T13:24:30;9.20;;;5.70;;
80247;SDS011;69560;52.206;21.018;2024-03-25T13:26:56;7.20;;;5.60;;
80247;SDS011;69560;52.206;21.018;2024-03-25T13:29:23;5.80;;;5.20;;
80247;SDS011;69560;52.206;21.018;2024-03-25T13:31:49;6.00;;;4.70;;
80247;SDS011;69560;52.206;21.018;2024-03-25T13:34:17;6.80;;;5.00;;
80247;SDS011;69560;52.206;21.018;2024-03-25T13:36:44;8.20;;;5.30;;
80247;SDS011;69560;52.206;21.018;2024-03-25T13:39:10;6.10;;;5.00;;
80247;SDS011;69560;52.206;21.018;2024-03-25T13:41:37;7.50;;;5.70;;
80247;SDS011;69560;52.206;21.018;2024-03-25T13:44:04;7.40;;;5.60;;
80247;SDS011;69560;52.206;21.018;2024-03-25T13:46:30;7.00;;;5.30;;
80247;SDS011;69560;52.206;21.018;2024-03-25T13:48:57;8.50;;;6.60;;
80247;SDS011;69560;52.206;21.018;2024-03-25T13:51:23;7.70;;;6.90;;
80247;SDS011;69560;52.206;21.018;2024-03-25T13:53:49;7.30;;;6.40;;
80247;SDS011;69560;52.206;21.018;2024-03-25T13:56:16;9.00;;;7.00;;
80247;SDS011;69560;52.206;21.018;2024-03-25T13:58:43;7.20;;;6.50;;
80247;SDS011;69560;52.206;21.018;2024-03-25T14:01:09;7.90;;;7.10;;
80247;SDS011;69560;52.206;21.018;2024-03-25T14:03:36;8.30;;;7.50;;
80247;SDS011;69560;52.206;21.018;2024-03-25T14:06:03;10.80;;;8.20;;
80247;SDS011;69560;52.206;21.018;2024-03-25T14:08:29;10.00;;;8.40;;
80247;SDS011;69560;52.206;21.018;2024-03-25T14:10:56;9.00;;;8.10;;
80247;SDS011;69560;52.206;21.018;2024-03-25T14:13:25;10.30;;;8.20;;
80247;SDS011;69560;52.206;21.018;2024-03-25T14:15:52;8.60;;;7.50;;
80247;SDS011;69560;52.206;21.018;2024-03-25T14:18:18;8.60;;;7.30;;
80247;SDS011;69560;52.206;21.018;2024-03-25T14:20:45;7.40;;;6.60;;
80247;SDS011;69560;52.206;21.018;2024-03-25T14:23:12;7.50;;;6.50;;
80247;SDS011;69560;52.206;21.018;2024-03-25T14:25:39;6.50;;;5.70;;